createdAt,value
2019-01-26T00:00:00.661Z,28.63
2019-01-26T00:02:32.102Z,30.50
2019-01-26T00:05:01.741Z,28.77
2019-01-26T00:07:32.538Z,29.17
2019-01-26T00:10:02.173Z,28.93
2019-01-26T00:12:32.868Z,28.73
2019-01-26T00:15:02.504Z,28.33
2019-01-26T00:17:32.213Z,30.77
2019-01-26T00:20:01.926Z,29.00
2019-01-26T00:22:31.543Z,29.30
2019-01-26T00:25:01.168Z,29.77
2019-01-26T00:27:30.945Z,31.17
2019-01-26T00:30:00.761Z,28.97
2019-01-26T00:32:30.556Z,29.70
2019-01-26T00:35:00.190Z,28.47
2019-01-26T00:37:29.810Z,29.73
2019-01-26T00:39:59.568Z,30.00
2019-01-26T00:42:29.469Z,31.53
2019-01-26T00:44:59.134Z,30.60
2019-01-26T00:47:28.849Z,29.47
2019-01-26T00:49:58.976Z,29.40
2019-01-26T00:52:28.668Z,29.53
2019-01-26T00:54:58.590Z,29.10
2019-01-26T00:57:28.453Z,29.13
2019-01-26T00:59:58.120Z,29.80
2019-01-26T01:02:28.053Z,28.90
2019-01-26T01:04:57.733Z,27.50
2019-01-26T01:07:27.362Z,26.70
2019-01-26T01:09:56.972Z,31.40
2019-01-26T01:12:26.600Z,30.43
2019-01-26T01:14:56.318Z,29.40
2019-01-26T01:17:25.927Z,29.80
2019-01-26T01:19:55.545Z,30.10
2019-01-26T01:22:25.175Z,31.50
2019-01-26T01:24:54.792Z,31.60
2019-01-26T01:27:24.476Z,30.13
2019-01-26T01:29:54.085Z,30.33
2019-01-26T01:32:23.713Z,30.23
2019-01-26T01:34:53.438Z,31.67
2019-01-26T01:37:23.183Z,31.20
2019-01-26T01:39:53.056Z,30.90
2019-01-26T01:42:22.689Z,30.43
2019-01-26T01:44:52.328Z,29.67
2019-01-26T01:47:22.124Z,32.53
2019-01-26T01:49:52.034Z,32.73
2019-01-26T01:52:21.656Z,32.23
2019-01-26T01:54:51.547Z,32.37
2019-01-26T01:57:21.499Z,33.97
2019-01-26T01:59:51.173Z,33.80
2019-01-26T02:02:20.879Z,32.33
2019-01-26T02:04:50.495Z,34.90
2019-01-26T02:07:20.340Z,34.07
2019-01-26T02:09:50.180Z,31.97
2019-01-26T02:12:20.033Z,34.00
2019-01-26T02:14:49.671Z,32.00
2019-01-26T02:17:20.447Z,30.10
2019-01-26T02:19:50.443Z,33.33
2019-01-26T02:22:20.069Z,32.40
2019-01-26T02:24:49.938Z,31.03
2019-01-26T02:27:19.975Z,32.97
2019-01-26T02:29:49.594Z,32.67
2019-01-26T02:32:19.237Z,33.10
2019-01-26T02:34:49.014Z,32.23
2019-01-26T02:37:18.657Z,31.70
2019-01-26T02:39:48.344Z,31.83
2019-01-26T02:42:18.046Z,32.83
2019-01-26T02:44:47.936Z,34.70
2019-01-26T02:47:17.793Z,33.23
2019-01-26T02:49:47.657Z,35.33
2019-01-26T02:52:17.367Z,35.63
2019-01-26T02:54:46.979Z,33.60
2019-01-26T02:57:16.642Z,34.60
2019-01-26T02:59:46.357Z,37.37
2019-01-26T03:02:15.993Z,33.40
2019-01-26T03:04:45.640Z,39.20
2019-01-26T03:07:15.347Z,37.67
2019-01-26T03:09:44.965Z,41.50
2019-01-26T03:12:14.592Z,38.87
2019-01-26T03:14:44.216Z,39.43
2019-01-26T03:17:14.002Z,36.10
2019-01-26T03:19:43.700Z,38.50
2019-01-26T03:22:13.318Z,38.23
2019-01-26T03:24:42.943Z,36.60
2019-01-26T03:27:12.621Z,37.13
2019-01-26T03:29:42.497Z,39.00
2019-01-26T03:32:12.113Z,35.67
2019-01-26T03:34:41.819Z,33.27
2019-01-26T03:37:11.442Z,35.97
2019-01-26T03:39:41.502Z,36.67
2019-01-26T03:42:11.598Z,36.77
2019-01-26T03:44:41.222Z,36.40
2019-01-26T03:47:13.786Z,36.00
2019-01-26T03:49:42.552Z,37.83
2019-01-26T03:52:12.228Z,35.67
2019-01-26T03:54:41.897Z,41.87
2019-01-26T03:57:11.504Z,37.23
2019-01-26T03:59:41.285Z,35.20
2019-01-26T04:02:11.132Z,36.93
2019-01-26T04:04:40.876Z,34.67
2019-01-26T04:07:10.729Z,33.93
2019-01-26T04:09:40.493Z,32.13
2019-01-26T04:12:10.097Z,33.00
2019-01-26T04:14:40.031Z,36.80
2019-01-26T04:17:10.002Z,34.23
2019-01-26T04:19:39.635Z,32.67
2019-01-26T04:22:09.250Z,31.63
2019-01-26T04:24:38.925Z,32.30
2019-01-26T04:27:08.604Z,36.17
2019-01-26T04:29:38.221Z,37.67
2019-01-26T04:32:07.905Z,26.33
2019-01-26T04:34:37.535Z,28.57
2019-01-26T04:37:07.464Z,25.90
2019-01-26T04:39:37.383Z,28.93
2019-01-26T04:42:07.353Z,26.33
2019-01-26T04:44:37.061Z,25.73
2019-01-26T04:47:06.681Z,24.23
2019-01-26T04:49:36.299Z,19.70
2019-01-26T04:52:06.657Z,23.27
2019-01-26T04:54:36.275Z,18.17
2019-01-26T04:57:05.978Z,19.93
2019-01-26T04:59:35.596Z,19.47
2019-01-26T05:02:05.464Z,19.47
2019-01-26T05:04:36.141Z,18.97
2019-01-26T05:07:05.941Z,19.97
2019-01-26T05:09:35.569Z,19.70
2019-01-26T05:12:05.272Z,19.67
2019-01-26T05:14:35.386Z,17.43
2019-01-26T05:17:05.114Z,19.27
2019-01-26T05:19:35.009Z,14.77
2019-01-26T05:22:05.080Z,17.83
2019-01-26T05:24:34.789Z,18.43
2019-01-26T05:27:04.712Z,16.97
2019-01-26T05:29:34.324Z,18.13
2019-01-26T05:32:04.493Z,16.30
2019-01-26T05:34:34.161Z,18.37
2019-01-26T05:37:03.789Z,18.13
2019-01-26T05:39:33.505Z,20.23
2019-01-26T05:42:03.131Z,19.80
2019-01-26T05:44:32.765Z,20.70
2019-01-26T05:47:02.406Z,20.20
2019-01-26T05:49:33.001Z,20.30
2019-01-26T05:52:02.701Z,21.27
2019-01-26T05:54:32.325Z,19.50
2019-01-26T05:57:02.199Z,19.97
2019-01-26T05:59:31.793Z,21.90
2019-01-26T06:02:01.491Z,21.33
2019-01-26T06:04:31.121Z,24.57
2019-01-26T06:07:00.804Z,22.37
2019-01-26T06:09:30.430Z,24.13
2019-01-26T06:12:00.042Z,25.03
2019-01-26T06:14:29.901Z,24.30
2019-01-26T06:16:59.520Z,24.47
2019-01-26T06:19:29.150Z,24.63
2019-01-26T06:21:58.813Z,24.40
2019-01-26T06:24:28.439Z,23.57
2019-01-26T06:26:58.094Z,22.57
2019-01-26T06:29:28.255Z,22.93
2019-01-26T06:31:57.864Z,22.70
2019-01-26T06:34:27.618Z,23.50
2019-01-26T06:36:57.233Z,21.67
2019-01-26T06:39:27.094Z,22.50
2019-01-26T06:41:56.955Z,22.13
2019-01-26T06:44:26.615Z,22.23
2019-01-26T06:46:56.475Z,21.17
2019-01-26T06:49:26.391Z,21.03
2019-01-26T06:51:56.169Z,20.83
2019-01-26T06:54:25.916Z,20.07
2019-01-26T06:56:55.848Z,21.33
2019-01-26T06:59:26.010Z,20.80
2019-01-26T07:01:55.874Z,20.17
2019-01-26T07:04:47.402Z,20.83
2019-01-26T07:07:18.866Z,20.50
2019-01-26T07:09:48.503Z,18.40
2019-01-26T07:12:18.166Z,19.90
2019-01-26T07:14:47.793Z,20.10
2019-01-26T07:17:17.408Z,18.00
2019-01-26T07:19:47.283Z,19.23
2019-01-26T07:22:16.908Z,18.73
2019-01-26T07:24:46.592Z,20.87
2019-01-26T07:27:16.327Z,20.37
2019-01-26T07:29:46.050Z,20.53
2019-01-26T07:32:15.673Z,21.77
2019-01-26T07:34:45.401Z,22.40
2019-01-26T07:37:15.076Z,21.00
2019-01-26T07:39:44.700Z,19.77
2019-01-26T07:42:14.405Z,21.03
2019-01-26T07:44:44.385Z,20.47
2019-01-26T07:47:14.005Z,21.37
2019-01-26T07:49:43.640Z,20.20
2019-01-26T07:52:13.559Z,17.33
2019-01-26T07:54:43.165Z,18.43
2019-01-26T07:57:13.045Z,26.00
2019-01-26T07:59:42.959Z,24.47
2019-01-26T08:02:12.912Z,19.57
2019-01-26T08:04:42.548Z,18.30
2019-01-26T08:07:12.212Z,17.90
2019-01-26T08:09:41.833Z,17.37
2019-01-26T08:12:11.452Z,16.77
2019-01-26T08:14:41.070Z,17.60
2019-01-26T08:17:10.769Z,17.27
2019-01-26T08:19:40.409Z,16.67
2019-01-26T08:22:10.037Z,16.20
2019-01-26T08:24:39.652Z,16.47
2019-01-26T08:27:09.272Z,15.33
2019-01-26T08:29:38.885Z,14.73
2019-01-26T08:32:08.504Z,15.33
2019-01-26T08:34:38.175Z,13.80
2019-01-26T08:37:07.873Z,15.33
2019-01-26T08:39:37.485Z,14.87
2019-01-26T08:42:07.464Z,15.03
2019-01-26T08:44:37.084Z,13.80
2019-01-26T08:47:06.791Z,14.53
2019-01-26T08:49:36.570Z,14.10
2019-01-26T08:52:06.916Z,13.83
2019-01-26T08:54:36.528Z,14.03
2019-01-26T08:57:06.680Z,14.67
2019-01-26T08:59:36.292Z,14.30
2019-01-26T09:02:25.557Z,16.67
2019-01-26T09:04:55.997Z,18.13
2019-01-26T09:07:25.627Z,19.17
2019-01-26T09:09:55.469Z,19.37
2019-01-26T09:12:25.205Z,19.40
2019-01-26T09:14:54.816Z,18.23
2019-01-26T09:17:24.460Z,18.17
2019-01-26T09:19:54.357Z,18.43
2019-01-26T09:22:23.971Z,17.90
2019-01-26T09:24:53.666Z,18.33
2019-01-26T09:27:23.364Z,17.77
2019-01-26T09:29:53.172Z,17.47
2019-01-26T09:32:22.864Z,17.33
2019-01-26T09:34:52.724Z,18.07
2019-01-26T09:37:22.747Z,19.40
2019-01-26T09:39:53.336Z,17.97
2019-01-26T09:42:23.009Z,18.97
2019-01-26T09:44:52.633Z,18.37
2019-01-26T09:47:22.508Z,18.27
2019-01-26T09:49:52.124Z,16.60
2019-01-26T09:52:21.825Z,17.67
2019-01-26T09:54:51.629Z,16.93
2019-01-26T09:57:21.245Z,16.97
2019-01-26T09:59:50.870Z,16.57
2019-01-26T10:02:20.472Z,17.67
2019-01-26T10:04:50.101Z,16.73
2019-01-26T10:07:19.717Z,17.80
2019-01-26T10:09:49.336Z,17.73
2019-01-26T10:12:19.699Z,17.57
2019-01-26T10:14:49.342Z,16.73
2019-01-26T10:17:19.253Z,18.13
2019-01-26T10:19:49.232Z,17.77
2019-01-26T10:22:18.841Z,18.70
2019-01-26T10:24:48.460Z,17.93
2019-01-26T10:27:18.194Z,17.10
2019-01-26T10:29:47.808Z,18.13
2019-01-26T10:32:17.812Z,18.17
2019-01-26T10:34:47.683Z,14.17
2019-01-26T10:37:21.852Z,15.07
2019-01-26T10:39:51.554Z,14.93
2019-01-26T10:42:29.404Z,14.27
2019-01-26T10:44:59.364Z,12.47
2019-01-26T10:47:29.092Z,12.97
2019-01-26T10:49:58.708Z,12.23
2019-01-26T10:52:28.321Z,11.90
2019-01-26T10:54:57.941Z,10.87
2019-01-26T10:57:27.951Z,10.47
2019-01-26T10:59:57.693Z,11.53
2019-01-26T11:02:27.392Z,10.27
2019-01-26T11:04:57.393Z,10.53
2019-01-26T11:07:27.004Z,10.03
2019-01-26T11:09:56.919Z,10.03
2019-01-26T11:12:26.584Z,9.70
2019-01-26T11:14:56.204Z,10.27
2019-01-26T11:17:25.829Z,10.20
2019-01-26T11:19:55.440Z,9.60
2019-01-26T11:22:25.044Z,9.43
2019-01-26T11:24:54.746Z,10.50
2019-01-26T11:27:24.374Z,10.23
2019-01-26T11:29:54.075Z,8.87
2019-01-26T11:32:23.685Z,10.30
2019-01-26T11:34:53.312Z,10.43
2019-01-26T11:37:22.928Z,10.20
2019-01-26T11:39:58.777Z,8.90
2019-01-26T11:42:28.753Z,8.97
2019-01-26T11:45:20.677Z,8.50
2019-01-26T11:47:50.351Z,7.70
2019-01-26T11:50:26.557Z,8.73
2019-01-26T11:52:56.437Z,8.30
2019-01-26T11:55:34.412Z,8.47
2019-01-26T11:58:04.215Z,7.70
2019-01-26T12:00:59.716Z,8.07
2019-01-26T12:03:51.657Z,8.23
2019-01-26T12:06:27.860Z,7.93
2019-01-26T12:08:57.566Z,9.13
2019-01-26T12:11:27.390Z,8.20
2019-01-26T12:13:57.169Z,8.23
2019-01-26T12:16:27.324Z,9.17
2019-01-26T12:18:57.042Z,8.73
2019-01-26T12:21:26.809Z,8.30
2019-01-26T12:23:56.837Z,8.57
2019-01-26T12:26:26.814Z,8.73
2019-01-26T12:28:56.465Z,8.60
2019-01-26T12:31:26.302Z,8.23
2019-01-26T12:33:55.901Z,9.37
2019-01-26T12:36:25.668Z,9.60
2019-01-26T12:38:55.309Z,9.33
2019-01-26T12:41:24.927Z,9.40
2019-01-26T12:43:54.549Z,9.40
2019-01-26T12:46:24.177Z,8.97
2019-01-26T12:48:53.972Z,9.93
2019-01-26T12:51:23.589Z,9.83
2019-01-26T12:53:53.208Z,10.83
2019-01-26T12:56:22.896Z,10.73
2019-01-26T12:58:52.606Z,10.83
2019-01-26T13:01:22.297Z,11.30
2019-01-26T13:03:52.368Z,11.77
2019-01-26T13:06:22.031Z,11.27
2019-01-26T13:08:51.670Z,10.40
2019-01-26T13:11:23.724Z,11.63
2019-01-26T13:13:53.423Z,11.77
2019-01-26T13:16:23.100Z,10.37
2019-01-26T13:18:52.793Z,9.80
2019-01-26T13:21:22.773Z,10.37
2019-01-26T13:23:52.416Z,10.53
2019-01-26T13:26:22.106Z,10.10
2019-01-26T13:28:51.830Z,12.17
2019-01-26T13:31:21.963Z,12.53
2019-01-26T13:33:51.917Z,11.73
2019-01-26T13:36:21.843Z,10.23
2019-01-26T13:38:51.464Z,10.53
2019-01-26T13:41:21.385Z,12.13
2019-01-26T13:43:51.282Z,11.33
2019-01-26T13:46:20.892Z,12.73
2019-01-26T13:48:50.503Z,12.30
2019-01-26T13:51:20.497Z,13.23
2019-01-26T13:53:50.244Z,13.70
2019-01-26T13:56:20.352Z,15.77
2019-01-26T13:58:50.148Z,11.17
2019-01-26T14:01:20.972Z,10.70
2019-01-26T14:03:51.201Z,10.93
2019-01-26T14:06:20.941Z,10.63
2019-01-26T14:08:50.736Z,15.63
2019-01-26T14:11:20.559Z,13.83
2019-01-26T14:13:50.209Z,14.23
2019-01-26T14:16:20.001Z,12.90
2019-01-26T14:18:49.706Z,10.57
2019-01-26T14:21:19.499Z,11.07
2019-01-26T14:23:49.128Z,16.80
2019-01-26T14:26:37.960Z,11.10
2019-01-26T14:29:07.592Z,11.03
2019-01-26T14:31:37.708Z,10.63
2019-01-26T14:34:07.562Z,11.93
2019-01-26T14:36:37.385Z,10.57
2019-01-26T14:39:09.196Z,10.00
2019-01-26T14:41:38.842Z,10.20
2019-01-26T14:44:08.760Z,9.97
2019-01-26T14:46:38.701Z,9.67
2019-01-26T14:49:08.479Z,9.10
2019-01-26T14:51:38.089Z,10.27
2019-01-26T14:54:08.351Z,25.50
2019-01-26T14:56:38.042Z,16.27
2019-01-26T14:59:07.845Z,9.80
2019-01-26T15:01:37.658Z,9.70
2019-01-26T15:04:07.845Z,9.57
2019-01-26T15:06:37.904Z,10.03
2019-01-26T15:09:09.761Z,9.50
2019-01-26T15:11:39.738Z,10.17
2019-01-26T15:14:09.361Z,9.83
2019-01-26T15:16:39.329Z,10.80
2019-01-26T15:19:09.382Z,10.90
2019-01-26T15:21:39.164Z,10.67
2019-01-26T15:24:09.064Z,11.30
2019-01-26T15:26:39.481Z,11.10
2019-01-26T15:29:09.255Z,11.20
2019-01-26T15:31:39.375Z,10.60
2019-01-26T15:34:09.460Z,11.73
2019-01-26T15:36:39.114Z,9.47
2019-01-26T15:39:10.017Z,9.00
2019-01-26T15:41:39.828Z,10.17
2019-01-26T15:44:09.566Z,10.60
2019-01-26T15:46:39.497Z,10.10
2019-01-26T15:49:09.344Z,9.53
2019-01-26T15:51:39.328Z,10.77
2019-01-26T15:54:09.205Z,10.13
2019-01-26T15:56:39.234Z,13.93
2019-01-26T15:59:09.392Z,12.33
2019-01-26T16:01:39.388Z,10.93
2019-01-26T16:04:09.018Z,10.07
2019-01-26T16:06:38.748Z,10.40
2019-01-26T16:09:09.397Z,10.20
2019-01-26T16:11:39.350Z,11.13
2019-01-26T16:14:08.969Z,10.67
2019-01-26T16:16:38.654Z,9.73
2019-01-26T16:19:08.260Z,10.37
2019-01-26T16:21:37.880Z,10.40
2019-01-26T16:24:07.609Z,10.57
2019-01-26T16:26:37.231Z,9.47
2019-01-26T16:29:06.849Z,140.13
2019-01-26T16:31:36.578Z,23.17
2019-01-26T16:34:06.694Z,11.80
2019-01-26T16:36:36.777Z,9.10
2019-01-26T16:39:09.669Z,9.63
2019-01-26T16:41:39.381Z,8.53
2019-01-26T16:44:09.041Z,8.23
2019-01-26T16:46:38.778Z,9.27
2019-01-26T16:49:08.388Z,9.70
2019-01-26T16:51:38.630Z,8.57
2019-01-26T16:54:08.544Z,9.03
2019-01-26T16:56:38.166Z,9.10
2019-01-26T16:59:07.794Z,8.33
2019-01-26T17:01:37.401Z,9.33
2019-01-26T17:04:07.413Z,9.87
2019-01-26T17:06:37.309Z,10.60
2019-01-26T17:09:09.427Z,9.53
2019-01-26T17:11:39.472Z,9.83
2019-01-26T17:14:09.125Z,9.77
2019-01-26T17:16:38.744Z,9.37
2019-01-26T17:19:08.424Z,9.60
2019-01-26T17:21:38.049Z,9.57
2019-01-26T17:24:07.729Z,9.50
2019-01-26T17:26:37.424Z,9.57
2019-01-26T17:29:07.024Z,8.73
2019-01-26T17:31:37.232Z,9.60
2019-01-26T17:34:06.997Z,9.43
2019-01-26T17:36:36.937Z,8.40
2019-01-26T17:39:08.711Z,8.23
2019-01-26T17:41:38.405Z,8.17
2019-01-26T17:44:08.597Z,8.10
2019-01-26T17:46:38.217Z,8.67
2019-01-26T17:49:08.812Z,9.00
2019-01-26T17:51:38.868Z,9.00
2019-01-26T17:54:08.793Z,9.33
2019-01-26T17:56:38.480Z,9.47
2019-01-26T17:59:08.170Z,9.43
2019-01-26T18:01:37.870Z,9.40
2019-01-26T18:04:07.798Z,10.27
2019-01-26T18:06:37.764Z,10.43
2019-01-26T18:09:08.529Z,11.53
2019-01-26T18:11:38.440Z,11.07
2019-01-26T18:14:08.156Z,11.97
2019-01-26T18:16:37.776Z,12.17
2019-01-26T18:19:08.334Z,12.33
2019-01-26T18:21:38.353Z,11.10
2019-01-26T18:24:08.304Z,10.97
2019-01-26T18:26:37.988Z,10.63
2019-01-26T18:29:07.733Z,12.13
2019-01-26T18:31:37.383Z,13.23
2019-01-26T18:34:07.156Z,12.07
2019-01-26T18:36:36.868Z,12.40
2019-01-26T18:39:09.533Z,12.27
2019-01-26T18:41:40.500Z,12.50
2019-01-26T18:44:10.124Z,10.80
2019-01-26T18:46:39.731Z,11.47
2019-01-26T18:49:09.393Z,11.67
2019-01-26T18:51:39.129Z,12.03
2019-01-26T18:54:08.833Z,12.87
2019-01-26T18:56:38.454Z,15.00
2019-01-26T18:59:08.087Z,14.17
2019-01-26T19:01:37.778Z,16.83
2019-01-26T19:04:27.072Z,13.90
2019-01-26T19:06:57.036Z,16.60
2019-01-26T19:09:27.141Z,19.17
2019-01-26T19:11:56.806Z,23.13
2019-01-26T19:14:26.455Z,42.30
2019-01-26T19:16:56.080Z,29.13
2019-01-26T19:19:26.032Z,25.70
2019-01-26T19:21:55.737Z,27.37
2019-01-26T19:24:25.360Z,21.23
2019-01-26T19:26:54.965Z,20.63
2019-01-26T19:29:24.661Z,21.03
2019-01-26T19:31:54.277Z,21.83
2019-01-26T19:34:23.979Z,22.80
2019-01-26T19:36:53.593Z,22.93
2019-01-26T19:39:23.284Z,23.47
2019-01-26T19:41:53.008Z,24.83
2019-01-26T19:44:22.645Z,26.53
2019-01-26T19:46:52.257Z,31.60
2019-01-26T19:49:22.064Z,25.50
2019-01-26T19:51:51.668Z,23.37
2019-01-26T19:54:21.289Z,26.93
2019-01-26T19:56:50.916Z,24.30
2019-01-26T19:59:20.540Z,25.83
2019-01-26T20:01:50.173Z,26.27
2019-01-26T20:04:20.124Z,27.30
2019-01-26T20:06:50.383Z,27.60
2019-01-26T20:09:20.069Z,27.50
2019-01-26T20:11:49.824Z,27.43
2019-01-26T20:14:19.488Z,25.13
2019-01-26T20:16:49.512Z,24.87
2019-01-26T20:19:19.289Z,23.30
2019-01-26T20:21:48.990Z,24.87
2019-01-26T20:24:18.661Z,24.60
2019-01-26T20:26:48.348Z,23.17
2019-01-26T20:29:17.964Z,58.13
2019-01-26T20:31:47.841Z,24.77
2019-01-26T20:34:17.660Z,25.13
2019-01-26T20:36:47.294Z,25.27
2019-01-26T20:39:16.910Z,24.83
2019-01-26T20:41:46.560Z,24.53
2019-01-26T20:44:16.251Z,26.33
2019-01-26T20:46:46.192Z,25.60
2019-01-26T20:49:15.825Z,23.27
2019-01-26T20:51:45.453Z,25.23
2019-01-26T20:54:15.204Z,24.40
2019-01-26T20:56:44.832Z,23.33
2019-01-26T20:59:14.613Z,25.10
2019-01-26T21:01:44.285Z,22.87
2019-01-26T21:04:14.035Z,25.27
2019-01-26T21:06:43.668Z,26.07
2019-01-26T21:09:13.359Z,24.23
2019-01-26T21:11:43.363Z,23.43
2019-01-26T21:14:12.983Z,24.47
2019-01-26T21:16:42.652Z,27.33
2019-01-26T21:19:12.268Z,21.37
2019-01-26T21:21:42.005Z,35.93
2019-01-26T21:24:11.862Z,23.73
2019-01-26T21:26:41.532Z,24.73
2019-01-26T21:29:11.276Z,21.87
2019-01-26T21:31:41.254Z,21.70
2019-01-26T21:34:11.297Z,22.23
2019-01-26T21:36:41.024Z,21.50
2019-01-26T21:39:10.704Z,22.20
2019-01-26T21:41:40.611Z,21.27
2019-01-26T21:44:10.239Z,22.00
2019-01-26T21:46:39.903Z,21.53
2019-01-26T21:49:09.608Z,23.40
2019-01-26T21:51:39.552Z,24.53
2019-01-26T21:54:09.172Z,25.30
2019-01-26T21:56:38.805Z,23.43
2019-01-26T21:59:08.712Z,23.43
2019-01-26T22:01:38.403Z,25.07
2019-01-26T22:04:08.124Z,25.20
2019-01-26T22:06:37.749Z,23.90
2019-01-26T22:09:09.181Z,25.73
2019-01-26T22:11:39.021Z,24.43
2019-01-26T22:14:08.806Z,24.60
2019-01-26T22:16:38.408Z,25.77
2019-01-26T22:19:08.033Z,26.20
2019-01-26T22:21:37.717Z,26.43
2019-01-26T22:24:07.597Z,25.77
2019-01-26T22:26:37.516Z,26.57
2019-01-26T22:29:07.208Z,26.70
2019-01-26T22:31:36.815Z,26.57
2019-01-26T22:34:06.643Z,24.93
2019-01-26T22:36:36.513Z,27.80
2019-01-26T22:39:08.480Z,26.93
2019-01-26T22:41:38.709Z,25.73
2019-01-26T22:44:08.690Z,26.67
2019-01-26T22:46:38.448Z,26.60
2019-01-26T22:49:08.076Z,25.70
2019-01-26T22:51:37.932Z,26.80
2019-01-26T22:54:07.648Z,25.80
2019-01-26T22:56:37.497Z,27.13
2019-01-26T22:59:07.136Z,27.87
2019-01-26T23:01:39.677Z,27.13
2019-01-26T23:04:33.429Z,27.50
2019-01-26T23:07:33.555Z,26.87
2019-01-26T23:10:46.746Z,26.70
2019-01-26T23:13:53.293Z,26.77
2019-01-26T23:16:46.185Z,27.00
2019-01-26T23:19:26.589Z,27.30
2019-01-26T23:22:29.148Z,24.87
2019-01-26T23:25:35.970Z,26.80
2019-01-26T23:28:18.740Z,27.03
2019-01-26T23:31:14.151Z,27.70
2019-01-26T23:33:44.206Z,28.50
2019-01-26T23:36:14.455Z,27.67
2019-01-26T23:38:44.161Z,28.80
2019-01-26T23:41:13.840Z,29.27
2019-01-26T23:43:43.553Z,28.37
2019-01-26T23:46:13.251Z,28.17
2019-01-26T23:48:42.941Z,28.00
2019-01-26T23:51:12.909Z,27.50
2019-01-26T23:53:42.692Z,27.90
2019-01-26T23:56:12.557Z,28.00
2019-01-26T23:58:42.349Z,28.33
